createdAt,value
2019-03-20T00:04:33.977Z,102316.50
2019-03-20T00:09:37.409Z,102325.81
2019-03-20T00:14:40.825Z,102327.48
2019-03-20T00:19:44.249Z,102331.34
2019-03-20T00:24:47.651Z,102334.67
2019-03-20T00:29:51.684Z,102342.09
2019-03-20T00:35:00.719Z,102339.92
2019-03-20T00:40:00.379Z,102332.47
2019-03-20T00:45:04.873Z,102333.67
2019-03-20T00:50:11.572Z,102327.92
2019-03-20T00:55:15.954Z,102320.03
2019-03-20T01:00:25.447Z,102321.26
2019-03-20T01:05:28.853Z,102314.28
2019-03-20T01:10:32.276Z,102299.14
2019-03-20T01:15:36.779Z,102310.67
2019-03-20T01:20:40.210Z,102314.88
2019-03-20T01:25:43.567Z,102316.64
2019-03-20T01:30:46.979Z,102315.61
2019-03-20T01:35:50.392Z,102319.16
2019-03-20T01:40:53.816Z,102320.28
2019-03-20T01:45:57.267Z,102315.26
2019-03-20T01:51:18.236Z,102317.96
2019-03-20T01:56:21.659Z,102327.92
2019-03-20T02:01:25.089Z,102337.22
2019-03-20T02:06:28.580Z,102331.59
2019-03-20T02:11:32.010Z,102329.61
2019-03-20T02:16:35.501Z,102325.86
2019-03-20T02:21:38.924Z,102334.19
2019-03-20T02:26:42.460Z,102334.19
2019-03-20T02:31:45.868Z,102333.65
2019-03-20T02:36:49.310Z,102331.09
2019-03-20T02:41:52.766Z,102332.31
2019-03-20T02:46:56.222Z,102330.67
2019-03-20T02:51:59.651Z,102327.16
2019-03-20T02:57:03.075Z,102327.33
2019-03-20T03:02:06.479Z,102327.67
2019-03-20T03:07:09.912Z,102330.32
2019-03-20T03:12:13.331Z,102321.93
2019-03-20T03:17:16.785Z,102321.83
2019-03-20T03:22:20.212Z,102324.67
2019-03-20T03:27:24.024Z,102325.66
2019-03-20T03:32:27.551Z,102335.20
2019-03-20T03:37:30.997Z,102335.95
2019-03-20T03:42:34.512Z,102339.88
2019-03-20T03:47:37.954Z,102342.52
2019-03-20T03:52:41.425Z,102344.11
2019-03-20T03:57:45.286Z,102336.86
2019-03-20T04:02:48.706Z,102345.46
2019-03-20T04:07:52.100Z,102355.59
2019-03-20T04:12:55.537Z,102348.84
2019-03-20T04:17:58.949Z,102335.67
2019-03-20T04:23:02.396Z,102343.98
2019-03-20T04:28:05.959Z,102337.81
2019-03-20T04:33:09.386Z,102335.17
2019-03-20T04:38:12.828Z,102342.92
2019-03-20T04:43:16.243Z,102346.70
2019-03-20T04:48:19.679Z,102351.25
2019-03-20T04:53:23.086Z,102353.42
2019-03-20T04:58:26.559Z,102352.37
2019-03-20T05:03:29.982Z,102351.28
2019-03-20T05:08:33.408Z,102353.34
2019-03-20T05:13:36.832Z,102351.75
2019-03-20T05:18:40.251Z,102357.13
2019-03-20T05:23:43.682Z,102354.80
2019-03-20T05:28:47.183Z,102355.25
2019-03-20T05:33:50.691Z,102360.94
2019-03-20T05:38:54.197Z,102366.66
2019-03-20T05:43:57.648Z,102378.31
2019-03-20T05:49:01.139Z,102376.85
2019-03-20T05:54:04.572Z,102384.90
2019-03-20T05:59:08.099Z,102376.63
2019-03-20T06:04:11.532Z,102381.92
2019-03-20T06:09:14.980Z,102397.59
2019-03-20T06:14:18.395Z,102406.44
2019-03-20T06:19:21.811Z,102415.81
2019-03-20T06:24:25.233Z,102417.80
2019-03-20T06:29:28.647Z,102425.19
2019-03-20T06:34:32.062Z,102416.16
2019-03-20T06:39:35.487Z,102419.52
2019-03-20T06:44:38.894Z,102418.09
2019-03-20T06:49:42.370Z,102410.92
2019-03-20T06:54:45.870Z,102419.89
2019-03-20T06:59:52.342Z,102422.02
2019-03-20T07:05:14.214Z,102429.33
2019-03-20T07:10:26.482Z,102422.45
2019-03-20T07:15:30.170Z,102418.88
2019-03-20T07:20:33.592Z,102422.39
2019-03-20T07:25:37.009Z,102428.83
2019-03-20T07:30:40.426Z,102426.89
2019-03-20T07:35:43.859Z,102427.34
2019-03-20T07:40:47.291Z,102423.41
2019-03-20T07:45:51.712Z,102426.56
2019-03-20T07:50:55.184Z,102432.90
2019-03-20T07:55:58.689Z,102431.78
2019-03-20T08:01:02.237Z,102430.59
2019-03-20T08:06:05.670Z,102447.08
2019-03-20T08:11:09.095Z,102443.68
2019-03-20T08:16:13.245Z,102464.28
2019-03-20T08:21:16.597Z,102465.81
2019-03-20T08:26:20.024Z,102475.29
2019-03-20T08:31:23.469Z,102480.24
2019-03-20T08:36:26.868Z,102477.09
2019-03-20T08:41:30.292Z,102479.83
2019-03-20T08:46:33.726Z,102476.16
2019-03-20T08:51:37.167Z,102477.78
2019-03-20T08:56:40.607Z,102486.30
2019-03-20T09:01:44.482Z,102481.98
2019-03-20T09:06:47.934Z,102475.57
2019-03-20T09:11:51.348Z,102479.16
2019-03-20T09:16:54.774Z,102489.25
2019-03-20T09:21:58.203Z,102494.94
2019-03-20T09:27:01.625Z,102498.22
2019-03-20T09:32:05.084Z,102496.41
2019-03-20T09:37:08.499Z,102495.77
2019-03-20T09:42:11.912Z,102496.34
2019-03-20T09:47:15.327Z,102490.19
2019-03-20T09:52:18.754Z,102489.45
2019-03-20T09:57:22.182Z,102486.27
2019-03-20T10:02:25.626Z,102486.78
2019-03-20T10:07:29.049Z,102482.45
2019-03-20T10:12:32.522Z,102479.48
2019-03-20T10:17:35.972Z,102475.51
2019-03-20T10:22:39.691Z,102478.61
2019-03-20T10:27:48.087Z,102477.76
2019-03-20T10:32:51.650Z,102476.44
2019-03-20T10:37:55.098Z,102480.39
2019-03-20T10:42:58.668Z,102476.42
2019-03-20T10:48:02.103Z,102476.45
2019-03-20T10:53:06.308Z,102486.06
2019-03-20T10:58:09.706Z,102484.34
2019-03-20T11:03:13.126Z,102487.37
2019-03-20T11:08:16.564Z,102493.09
2019-03-20T11:13:20.135Z,102496.16
2019-03-20T11:18:23.558Z,102497.00
2019-03-20T11:23:26.962Z,102506.23
2019-03-20T11:28:30.397Z,102489.57
2019-03-20T11:33:33.810Z,102495.70
2019-03-20T11:38:37.258Z,102494.83
2019-03-20T11:43:40.693Z,102502.27
2019-03-20T11:48:44.218Z,102502.72
2019-03-20T11:53:47.658Z,102507.54
2019-03-20T11:58:51.095Z,102507.97
2019-03-20T12:03:54.524Z,102503.59
2019-03-20T12:08:58.023Z,102503.58
2019-03-20T12:14:01.388Z,102507.97
2019-03-20T12:19:04.948Z,102499.64
2019-03-20T12:24:08.435Z,102501.83
2019-03-20T12:29:12.029Z,102507.94
2019-03-20T12:34:15.441Z,102509.23
2019-03-20T12:39:18.869Z,102499.59
2019-03-20T12:44:22.305Z,102512.72
2019-03-20T12:49:25.746Z,102518.44
2019-03-20T12:54:29.181Z,102521.02
2019-03-20T12:59:32.628Z,102514.42
2019-03-20T13:04:36.047Z,102519.56
2019-03-20T13:09:39.491Z,102521.83
2019-03-20T13:14:42.914Z,102519.23
2019-03-20T13:19:46.355Z,102525.83
2019-03-20T13:24:49.769Z,102517.07
2019-03-20T13:29:53.196Z,102517.53
2019-03-20T13:34:56.627Z,102519.69
2019-03-20T13:40:00.339Z,102520.88
2019-03-20T13:45:05.727Z,102519.97
2019-03-20T13:50:11.864Z,102520.82
2019-03-20T13:55:16.350Z,102510.80
2019-03-20T14:00:24.094Z,102516.86
2019-03-20T14:05:27.538Z,102522.98
2019-03-20T14:10:31.720Z,102527.81
2019-03-20T14:15:35.200Z,102527.41
2019-03-20T14:20:38.624Z,102523.00
2019-03-20T14:25:42.060Z,102527.38
2019-03-20T14:30:46.090Z,102524.28
2019-03-20T14:35:49.514Z,102516.48
2019-03-20T14:40:52.912Z,102509.05
2019-03-20T14:45:56.338Z,102506.77
2019-03-20T14:50:59.813Z,102501.94
2019-03-20T14:56:03.324Z,102498.88
2019-03-20T15:01:06.831Z,102495.00
2019-03-20T15:06:10.266Z,102495.84
2019-03-20T15:11:13.693Z,102501.06
2019-03-20T15:16:17.140Z,102503.63
2019-03-20T15:21:20.632Z,102502.71
2019-03-20T15:26:24.210Z,102490.84
2019-03-20T15:31:27.655Z,102496.92
2019-03-20T15:36:31.207Z,102490.37
2019-03-20T15:41:34.757Z,102488.93
2019-03-20T15:46:38.188Z,102490.67
2019-03-20T15:51:41.700Z,102489.70
2019-03-20T15:56:45.154Z,102481.37
2019-03-20T16:01:48.739Z,102487.00
2019-03-20T16:06:52.235Z,102481.77
2019-03-20T16:11:55.646Z,102483.51
2019-03-20T16:16:59.077Z,102484.86
2019-03-20T16:22:02.565Z,102494.41
2019-03-20T16:27:06.264Z,102501.73
2019-03-20T16:32:09.693Z,102487.42
2019-03-20T16:37:13.180Z,102483.50
2019-03-20T16:42:16.606Z,102488.25
2019-03-20T16:47:20.044Z,102487.86
2019-03-20T16:52:23.460Z,102486.47
2019-03-20T16:57:26.965Z,102491.65
2019-03-20T17:02:30.399Z,102489.42
2019-03-20T17:07:33.803Z,102502.44
2019-03-20T17:12:37.227Z,102508.86
2019-03-20T17:17:40.644Z,102517.91
2019-03-20T17:22:44.149Z,102513.41
2019-03-20T17:27:48.275Z,102520.30
2019-03-20T17:32:51.742Z,102524.89
2019-03-20T17:37:55.192Z,102522.98
2019-03-20T17:42:58.626Z,102520.55
2019-03-20T17:48:02.115Z,102510.25
2019-03-20T17:53:06.177Z,102517.45
2019-03-20T17:58:09.620Z,102511.52
2019-03-20T18:03:13.135Z,102515.98
2019-03-20T18:08:17.596Z,102510.00
2019-03-20T18:13:21.110Z,102518.73
2019-03-20T18:18:24.537Z,102522.73
2019-03-20T18:23:27.973Z,102531.08
2019-03-20T18:28:31.468Z,102539.34
2019-03-20T18:33:34.897Z,102545.07
2019-03-20T18:38:38.310Z,102549.39
2019-03-20T18:43:42.254Z,102559.47
2019-03-20T18:48:45.681Z,102565.12
2019-03-20T18:53:49.122Z,102569.17
2019-03-20T18:58:52.573Z,102573.38
2019-03-20T19:03:56.066Z,102581.55
2019-03-20T19:08:59.705Z,102575.92
2019-03-20T19:14:03.437Z,102569.87
2019-03-20T19:19:06.916Z,102584.66
2019-03-20T19:24:10.456Z,102581.12
2019-03-20T19:29:13.850Z,102594.14
2019-03-20T19:34:17.376Z,102585.84
2019-03-20T19:39:20.804Z,102583.66
2019-03-20T19:44:24.294Z,102588.88
2019-03-20T19:49:27.730Z,102597.95
2019-03-20T19:54:31.177Z,102600.13
2019-03-20T19:59:35.631Z,102601.85
2019-03-20T20:04:39.268Z,102596.19
2019-03-20T20:09:42.798Z,102585.72
2019-03-20T20:14:46.446Z,102589.53
2019-03-20T20:19:49.867Z,102584.78
2019-03-20T20:24:53.316Z,102577.52
2019-03-20T20:29:56.827Z,102580.03
2019-03-20T20:35:00.372Z,102588.38
2019-03-20T20:40:05.131Z,102591.47
2019-03-20T20:45:12.379Z,102595.80
2019-03-20T20:50:17.232Z,102594.14
2019-03-20T20:55:24.521Z,102590.69
2019-03-20T21:00:28.334Z,102586.78
2019-03-20T21:05:31.775Z,102589.75
2019-03-20T21:10:35.217Z,102587.11
2019-03-20T21:15:40.472Z,102591.86
2019-03-20T21:20:44.567Z,102593.16
2019-03-20T21:25:48.946Z,102586.69
2019-03-20T21:31:01.438Z,102584.19
2019-03-20T21:36:27.735Z,102585.48
2019-03-20T21:41:34.250Z,102589.00
2019-03-20T21:46:52.265Z,102578.58
2019-03-20T21:51:55.718Z,102573.38
2019-03-20T21:57:02.203Z,102581.19
2019-03-20T22:02:29.574Z,102587.72
2019-03-20T22:07:32.982Z,102590.30
2019-03-20T22:12:51.543Z,102592.87
2019-03-20T22:18:32.425Z,102593.66
2019-03-20T22:23:55.507Z,102597.09
2019-03-20T22:29:22.357Z,102596.73
2019-03-20T22:34:43.943Z,102598.05
2019-03-20T22:40:16.333Z,102599.34
2019-03-20T22:45:57.918Z,102596.77
2019-03-20T22:51:19.463Z,102597.20
2019-03-20T22:56:47.083Z,102607.64
2019-03-20T23:01:56.669Z,102601.09
2019-03-20T23:07:00.085Z,102612.81
2019-03-20T23:12:06.353Z,102609.39
2019-03-20T23:17:09.944Z,102609.81
2019-03-20T23:22:13.387Z,102612.84
2019-03-20T23:27:23.477Z,102609.36
2019-03-20T23:32:26.933Z,102610.23
2019-03-20T23:37:30.370Z,102611.57
2019-03-20T23:42:33.788Z,102615.90
2019-03-20T23:47:40.255Z,102619.02
2019-03-20T23:52:43.690Z,102616.78
2019-03-20T23:57:47.141Z,102625.88
